Tongaat, South Africa
Current Conditions -  °F | °C
As of 4:00 PM on Monday 24 Nov 2014 (Local Time) from FALE Reporting Station
Few Clouds Few Clouds  
Wind Chill: 75°   Ceiling: Unl
Heat Index: 75°   Visibility: 6mi
Dew Point: 63°   Wind: 22mph
Humidity: 65%   Direction: 180°S
Pressure: 29.97"   Gusts: 33mph
Location:  29.58°S, 31.12°E
Report Text: FALE 241400Z 18019G29KT 9999 FEW018 FEW025CB 24/17 Q1015 NOSIG
Loading
Personal Weather Stations






























Interactive Weather Map New forecast layout! Learn more

10-Day Weather Forecast

Advertisements
Track Severe Weather on mobile